createdAt,value
2019-01-26T00:00:52.376Z,82.00
2019-01-26T00:03:23.134Z,81.84
2019-01-26T00:05:54.083Z,82.06
2019-01-26T00:08:26.254Z,81.97
2019-01-26T00:10:57.834Z,82.00
2019-01-26T00:13:29.898Z,81.27
2019-01-26T00:16:00.813Z,81.44
2019-01-26T00:18:31.423Z,81.56
2019-01-26T00:21:02.032Z,81.80
2019-01-26T00:23:32.718Z,82.10
2019-01-26T00:26:03.257Z,81.95
2019-01-26T00:28:33.934Z,82.00
2019-01-26T00:31:05.513Z,81.80
2019-01-26T00:33:37.020Z,81.64
2019-01-26T00:36:08.210Z,81.32
2019-01-26T00:38:39.297Z,81.37
2019-01-26T00:41:10.078Z,81.23
2019-01-26T00:43:41.229Z,80.95
2019-01-26T00:46:12.018Z,80.69
2019-01-26T00:48:43.169Z,80.55
2019-01-26T00:51:17.245Z,80.50
2019-01-26T00:53:46.618Z,80.48
2019-01-26T00:56:18.331Z,80.00
2019-01-26T00:58:49.839Z,79.68
2019-01-26T01:01:21.838Z,79.87
2019-01-26T01:03:52.980Z,79.58
2019-01-26T01:06:26.016Z,79.20
2019-01-26T01:08:56.069Z,79.25
2019-01-26T01:11:26.603Z,79.80
2019-01-26T01:13:58.297Z,80.23
2019-01-26T01:16:35.834Z,80.25
2019-01-26T01:19:02.969Z,80.37
2019-01-26T01:21:33.667Z,80.38
2019-01-26T01:24:04.467Z,80.37
2019-01-26T01:26:35.179Z,80.25
2019-01-26T01:29:05.919Z,80.36
2019-01-26T01:31:36.673Z,80.47
2019-01-26T01:34:07.318Z,80.46
2019-01-26T01:36:37.948Z,80.60
2019-01-26T01:39:11.297Z,80.73
2019-01-26T01:41:42.919Z,81.00
2019-01-26T01:44:14.743Z,80.97
2019-01-26T01:46:45.398Z,81.02
2019-01-26T01:49:16.040Z,81.03
2019-01-26T01:51:46.723Z,81.02
2019-01-26T01:54:17.285Z,80.97
2019-01-26T01:56:47.827Z,81.00
2019-01-26T01:59:18.414Z,81.04
2019-01-26T02:01:48.939Z,80.95
2019-01-26T02:04:19.508Z,81.04
2019-01-26T02:06:50.129Z,81.06
2019-01-26T02:09:20.812Z,81.06
2019-01-26T02:11:51.539Z,80.83
2019-01-26T02:14:22.138Z,80.77
2019-01-26T02:16:52.753Z,80.64
2019-01-26T02:19:23.377Z,80.40
2019-01-26T02:21:54.005Z,80.15
2019-01-26T02:24:24.650Z,80.09
2019-01-26T02:26:55.330Z,80.32
2019-01-26T02:29:25.878Z,79.95
2019-01-26T02:31:56.534Z,80.03
2019-01-26T02:34:26.979Z,79.72
2019-01-26T02:36:57.729Z,78.65
2019-01-26T02:39:28.227Z,78.19
2019-01-26T02:41:58.803Z,78.24
2019-01-26T02:44:29.361Z,77.33
2019-01-26T02:46:59.980Z,77.50
2019-01-26T02:49:30.527Z,77.88
2019-01-26T02:52:01.294Z,77.70
2019-01-26T02:54:31.883Z,77.41
2019-01-26T02:57:02.478Z,77.41
2019-01-26T02:59:33.174Z,77.47
2019-01-26T03:02:03.901Z,77.74
2019-01-26T03:04:34.717Z,78.57
2019-01-26T03:07:05.687Z,78.37
2019-01-26T03:09:36.387Z,78.50
2019-01-26T03:12:08.459Z,78.54
2019-01-26T03:14:39.003Z,78.67
2019-01-26T03:17:09.649Z,78.59
2019-01-26T03:19:40.539Z,79.07
2019-01-26T03:22:11.944Z,78.74
2019-01-26T03:24:42.609Z,78.86
2019-01-26T03:27:13.340Z,77.86
2019-01-26T03:29:43.986Z,77.70
2019-01-26T03:32:14.738Z,77.67
2019-01-26T03:34:45.362Z,77.21
2019-01-26T03:37:16.074Z,77.21
2019-01-26T03:39:46.684Z,77.01
2019-01-26T03:42:17.313Z,76.73
2019-01-26T03:44:47.966Z,76.48
2019-01-26T03:47:18.510Z,76.51
2019-01-26T03:49:49.224Z,76.35
2019-01-26T03:52:19.930Z,75.99
2019-01-26T03:54:50.668Z,76.25
2019-01-26T03:57:21.340Z,76.33
2019-01-26T03:59:52.098Z,76.49
2019-01-26T04:02:23.949Z,76.33
2019-01-26T04:04:54.680Z,76.26
2019-01-26T04:07:25.419Z,76.09
2019-01-26T04:09:56.098Z,76.60
2019-01-26T04:12:26.904Z,77.04
2019-01-26T04:14:57.574Z,77.40
2019-01-26T04:17:28.424Z,77.74
2019-01-26T04:19:59.080Z,78.01
2019-01-26T04:22:29.784Z,78.26
2019-01-26T04:25:00.440Z,78.56
2019-01-26T04:27:31.129Z,79.07
2019-01-26T04:30:01.870Z,79.08
2019-01-26T04:32:32.514Z,79.37
2019-01-26T04:35:03.359Z,79.34
2019-01-26T04:37:34.052Z,79.65
2019-01-26T04:40:05.831Z,79.68
2019-01-26T04:42:36.517Z,79.69
2019-01-26T04:45:10.319Z,79.76
2019-01-26T04:47:41.045Z,80.10
2019-01-26T04:50:14.250Z,80.15
2019-01-26T04:52:45.043Z,80.31
2019-01-26T04:55:18.697Z,80.36
2019-01-26T04:57:49.769Z,80.38
2019-01-26T05:00:24.144Z,80.59
2019-01-26T05:02:54.864Z,80.75
2019-01-26T05:05:25.709Z,81.07
2019-01-26T05:07:56.394Z,80.96
2019-01-26T05:10:27.020Z,80.88
2019-01-26T05:12:57.768Z,81.13
2019-01-26T05:15:28.419Z,81.25
2019-01-26T05:17:59.113Z,81.34
2019-01-26T05:20:29.909Z,81.62
2019-01-26T05:23:00.605Z,82.17
2019-01-26T05:25:31.221Z,81.94
2019-01-26T05:28:01.830Z,82.13
2019-01-26T05:30:32.388Z,82.01
2019-01-26T05:33:03.078Z,81.60
2019-01-26T05:35:33.626Z,81.44
2019-01-26T05:38:04.361Z,81.36
2019-01-26T05:40:35.049Z,81.15
2019-01-26T05:43:06.249Z,81.47
2019-01-26T05:45:36.932Z,81.20
2019-01-26T05:48:07.994Z,81.10
2019-01-26T05:50:38.719Z,81.49
2019-01-26T05:53:09.324Z,81.54
2019-01-26T05:55:39.921Z,80.97
2019-01-26T05:58:10.695Z,80.99
2019-01-26T06:00:41.731Z,80.78
2019-01-26T06:03:12.466Z,81.00
2019-01-26T06:05:43.060Z,81.02
2019-01-26T06:08:15.470Z,81.21
2019-01-26T06:10:46.070Z,81.17
2019-01-26T06:13:16.691Z,80.82
2019-01-26T06:15:47.421Z,81.13
2019-01-26T06:18:18.214Z,81.17
2019-01-26T06:20:48.880Z,81.17
2019-01-26T06:23:19.493Z,81.35
2019-01-26T06:25:50.120Z,80.87
2019-01-26T06:28:20.854Z,81.15
2019-01-26T06:30:51.559Z,81.14
2019-01-26T06:33:22.345Z,81.04
2019-01-26T06:35:56.971Z,81.25
2019-01-26T06:38:28.129Z,81.45
2019-01-26T06:40:59.057Z,81.34
2019-01-26T06:43:29.769Z,81.17
2019-01-26T06:46:00.321Z,81.21
2019-01-26T06:48:30.895Z,81.18
2019-01-26T06:51:01.693Z,81.05
2019-01-26T06:53:32.363Z,81.09
2019-01-26T06:56:03.120Z,81.02
2019-01-26T06:58:33.895Z,81.27
2019-01-26T07:01:04.635Z,81.47
2019-01-26T07:03:35.937Z,81.67
2019-01-26T07:06:17.220Z,82.14
2019-01-26T07:08:47.922Z,82.99
2019-01-26T07:11:40.005Z,83.69
2019-01-26T07:14:11.024Z,84.49
2019-01-26T07:16:41.799Z,85.50
2019-01-26T07:19:12.391Z,86.30
2019-01-26T07:21:43.129Z,86.83
2019-01-26T07:24:13.719Z,87.20
2019-01-26T07:26:44.479Z,87.39
2019-01-26T07:29:15.219Z,87.55
2019-01-26T07:31:45.921Z,87.60
2019-01-26T07:34:16.998Z,87.89
2019-01-26T07:36:47.693Z,88.02
2019-01-26T07:39:18.379Z,88.10
2019-01-26T07:41:49.096Z,88.26
2019-01-26T07:44:19.759Z,88.41
2019-01-26T07:46:50.697Z,88.60
2019-01-26T07:49:22.145Z,88.75
2019-01-26T07:51:52.959Z,88.82
2019-01-26T07:54:23.814Z,88.96
2019-01-26T07:56:54.695Z,88.91
2019-01-26T07:59:25.368Z,88.92
2019-01-26T08:01:56.049Z,88.98
2019-01-26T08:04:26.715Z,89.06
2019-01-26T08:06:57.288Z,89.09
2019-01-26T08:09:28.136Z,89.07
2019-01-26T08:11:58.759Z,88.97
2019-01-26T08:14:29.304Z,88.95
2019-01-26T08:16:59.969Z,88.88
2019-01-26T08:19:30.625Z,88.78
2019-01-26T08:22:01.289Z,88.73
2019-01-26T08:24:31.921Z,88.68
2019-01-26T08:27:02.655Z,88.79
2019-01-26T08:29:33.273Z,88.79
2019-01-26T08:32:03.945Z,88.77
2019-01-26T08:34:34.628Z,88.79
2019-01-26T08:37:05.794Z,88.68
2019-01-26T08:39:36.418Z,88.68
2019-01-26T08:42:07.368Z,88.67
2019-01-26T08:44:38.069Z,88.66
2019-01-26T08:47:08.674Z,88.59
2019-01-26T08:49:39.348Z,88.65
2019-01-26T08:52:10.100Z,88.68
2019-01-26T08:54:40.584Z,88.77
2019-01-26T08:57:11.373Z,88.70
2019-01-26T08:59:42.119Z,88.67
2019-01-26T09:02:30.267Z,88.74
2019-01-26T09:05:01.228Z,88.84
2019-01-26T09:07:31.905Z,88.74
2019-01-26T09:10:02.871Z,88.70
2019-01-26T09:12:33.508Z,88.73
2019-01-26T09:15:04.375Z,88.74
2019-01-26T09:17:35.148Z,88.69
2019-01-26T09:20:11.727Z,88.73
2019-01-26T09:22:42.481Z,88.84
2019-01-26T09:25:13.278Z,88.97
2019-01-26T09:27:44.349Z,88.98
2019-01-26T09:30:15.878Z,88.98
2019-01-26T09:32:46.568Z,88.77
2019-01-26T09:35:17.809Z,88.50
2019-01-26T09:37:51.769Z,88.13
2019-01-26T09:40:22.814Z,87.77
2019-01-26T09:42:53.704Z,87.65
2019-01-26T09:45:24.540Z,87.54
2019-01-26T09:47:55.899Z,87.53
2019-01-26T09:50:26.664Z,87.39
2019-01-26T09:52:57.620Z,87.19
2019-01-26T09:55:28.235Z,87.28
2019-01-26T09:57:58.892Z,87.56
2019-01-26T10:00:29.719Z,87.67
2019-01-26T10:03:00.428Z,87.83
2019-01-26T10:05:31.550Z,87.77
2019-01-26T10:08:02.214Z,87.72
2019-01-26T10:10:33.190Z,87.46
2019-01-26T10:13:03.984Z,87.26
2019-01-26T10:15:34.840Z,87.37
2019-01-26T10:18:06.240Z,87.23
2019-01-26T10:20:38.585Z,87.04
2019-01-26T10:23:10.633Z,86.68
2019-01-26T10:25:48.413Z,86.42
2019-01-26T10:28:13.795Z,86.71
2019-01-26T10:30:48.256Z,86.52
2019-01-26T10:33:19.001Z,86.80
2019-01-26T10:36:08.521Z,86.83
2019-01-26T10:38:44.204Z,87.04
2019-01-26T10:41:26.701Z,87.10
2019-01-26T10:43:57.493Z,86.49
2019-01-26T10:46:28.337Z,86.51
2019-01-26T10:49:00.781Z,86.42
2019-01-26T10:51:31.409Z,86.65
2019-01-26T10:54:02.295Z,85.92
2019-01-26T10:56:32.859Z,85.83
2019-01-26T10:59:03.710Z,85.27
2019-01-26T11:01:34.559Z,85.79
2019-01-26T11:04:05.324Z,85.62
2019-01-26T11:06:35.936Z,85.16
2019-01-26T11:09:11.608Z,85.17
2019-01-26T11:11:42.610Z,85.63
2019-01-26T11:14:13.387Z,85.82
2019-01-26T11:16:44.098Z,86.22
2019-01-26T11:19:14.822Z,86.86
2019-01-26T11:21:46.214Z,87.04
2019-01-26T11:24:16.894Z,86.51
2019-01-26T11:26:49.471Z,86.80
2019-01-26T11:29:20.070Z,87.24
2019-01-26T11:31:50.828Z,87.33
2019-01-26T11:34:21.594Z,86.94
2019-01-26T11:36:52.365Z,86.59
2019-01-26T11:39:23.146Z,86.33
2019-01-26T11:41:53.949Z,85.95
2019-01-26T11:44:25.358Z,85.23
2019-01-26T11:47:00.114Z,85.18
2019-01-26T11:49:30.885Z,84.69
2019-01-26T11:52:09.825Z,85.47
2019-01-26T11:55:01.338Z,85.28
2019-01-26T11:57:39.449Z,85.00
2019-01-26T12:00:38.505Z,84.61
2019-01-26T12:03:28.119Z,86.33
2019-01-26T12:06:03.810Z,86.08
2019-01-26T12:08:34.404Z,86.00
2019-01-26T12:11:05.145Z,86.53
2019-01-26T12:13:35.809Z,87.21
2019-01-26T12:16:06.602Z,87.36
2019-01-26T12:18:37.294Z,87.03
2019-01-26T12:21:07.964Z,87.06
2019-01-26T12:23:38.618Z,86.90
2019-01-26T12:26:09.388Z,86.53
2019-01-26T12:28:40.039Z,86.80
2019-01-26T12:31:10.594Z,86.96
2019-01-26T12:33:41.484Z,86.69
2019-01-26T12:36:12.469Z,86.59
2019-01-26T12:38:43.098Z,87.29
2019-01-26T12:41:13.889Z,88.03
2019-01-26T12:43:44.504Z,87.93
2019-01-26T12:46:15.060Z,87.28
2019-01-26T12:48:45.732Z,86.67
2019-01-26T12:51:16.257Z,86.60
2019-01-26T12:53:46.879Z,86.55
2019-01-26T12:56:17.599Z,86.40
2019-01-26T12:58:48.386Z,86.80
2019-01-26T13:01:19.004Z,86.49
2019-01-26T13:03:49.659Z,86.38
2019-01-26T13:06:20.450Z,86.06
2019-01-26T13:08:51.114Z,87.03
2019-01-26T13:11:27.028Z,87.10
2019-01-26T13:13:58.038Z,86.71
2019-01-26T13:16:28.785Z,86.38
2019-01-26T13:18:59.515Z,86.78
2019-01-26T13:21:30.230Z,87.08
2019-01-26T13:24:00.953Z,86.91
2019-01-26T13:26:31.939Z,86.74
2019-01-26T13:29:02.480Z,86.52
2019-01-26T13:31:34.190Z,86.84
2019-01-26T13:34:05.480Z,87.03
2019-01-26T13:36:36.188Z,86.92
2019-01-26T13:39:10.559Z,87.46
2019-01-26T13:41:41.286Z,88.59
2019-01-26T13:44:12.080Z,88.63
2019-01-26T13:46:42.839Z,88.59
2019-01-26T13:49:13.422Z,88.29
2019-01-26T13:51:44.106Z,88.10
2019-01-26T13:54:14.830Z,87.82
2019-01-26T13:56:45.535Z,88.07
2019-01-26T13:59:16.056Z,88.48
2019-01-26T14:01:46.725Z,88.32
2019-01-26T14:04:17.438Z,88.62
2019-01-26T14:06:48.259Z,88.60
2019-01-26T14:09:19.054Z,88.33
2019-01-26T14:11:49.930Z,88.02
2019-01-26T14:14:20.831Z,87.72
2019-01-26T14:16:51.590Z,87.58
2019-01-26T14:19:22.375Z,87.50
2019-01-26T14:21:52.815Z,87.61
2019-01-26T14:24:23.460Z,87.77
2019-01-26T14:26:54.158Z,87.88
2019-01-26T14:29:24.765Z,87.90
2019-01-26T14:31:55.317Z,87.88
2019-01-26T14:34:25.879Z,88.19
2019-01-26T14:36:56.500Z,88.54
2019-01-26T14:39:27.286Z,88.63
2019-01-26T14:41:57.957Z,88.63
2019-01-26T14:44:29.410Z,88.58
2019-01-26T14:47:00.100Z,88.58
2019-01-26T14:49:30.806Z,88.55
2019-01-26T14:52:01.498Z,88.57
2019-01-26T14:54:32.069Z,88.62
2019-01-26T14:57:03.105Z,88.64
2019-01-26T14:59:33.694Z,88.66
2019-01-26T15:02:04.529Z,88.76
2019-01-26T15:04:35.616Z,88.86
2019-01-26T15:07:07.029Z,89.02
2019-01-26T15:09:37.755Z,89.12
2019-01-26T15:12:08.504Z,89.32
2019-01-26T15:14:39.219Z,89.42
2019-01-26T15:17:09.925Z,89.43
2019-01-26T15:19:40.515Z,89.43
2019-01-26T15:22:11.270Z,89.55
2019-01-26T15:24:41.920Z,89.75
2019-01-26T15:27:12.540Z,89.83
2019-01-26T15:29:43.195Z,89.82
2019-01-26T15:32:16.208Z,89.77
2019-01-26T15:34:46.923Z,89.74
2019-01-26T15:37:17.619Z,89.68
2019-01-26T15:39:48.731Z,89.66
2019-01-26T15:42:19.453Z,89.63
2019-01-26T15:44:50.054Z,89.63
2019-01-26T15:47:20.539Z,89.65
2019-01-26T15:49:51.085Z,89.68
2019-01-26T15:52:23.290Z,89.70
2019-01-26T15:54:53.945Z,89.71
2019-01-26T15:57:24.586Z,89.79
2019-01-26T15:59:55.578Z,89.92
2019-01-26T16:02:26.513Z,90.06
2019-01-26T16:04:57.177Z,90.18
2019-01-26T16:07:27.975Z,90.27
2019-01-26T16:09:58.519Z,90.33
2019-01-26T16:12:29.135Z,90.36
2019-01-26T16:14:59.690Z,90.37
2019-01-26T16:17:30.359Z,90.45
2019-01-26T16:20:05.735Z,90.51
2019-01-26T16:22:36.239Z,90.55
2019-01-26T16:25:08.905Z,90.59
2019-01-26T16:27:39.625Z,90.68
2019-01-26T16:30:16.764Z,90.70
2019-01-26T16:32:47.617Z,90.66
2019-01-26T16:35:18.328Z,90.72
2019-01-26T16:37:49.589Z,91.05
2019-01-26T16:40:29.391Z,91.29
2019-01-26T16:43:00.032Z,91.42
2019-01-26T16:45:33.861Z,91.50
2019-01-26T16:48:05.820Z,91.50
2019-01-26T16:50:36.579Z,91.50
2019-01-26T16:53:07.248Z,91.50
2019-01-26T16:55:38.185Z,91.44
2019-01-26T16:58:08.989Z,91.38
2019-01-26T17:00:51.966Z,91.32
2019-01-26T17:03:24.228Z,91.17
2019-01-26T17:05:56.088Z,91.00
2019-01-26T17:08:26.869Z,90.87
2019-01-26T17:11:00.975Z,90.83
2019-01-26T17:13:31.820Z,90.81
2019-01-26T17:16:03.849Z,90.80
2019-01-26T17:18:36.738Z,90.75
2019-01-26T17:21:07.509Z,90.70
2019-01-26T17:23:38.398Z,90.68
2019-01-26T17:26:09.204Z,90.69
2019-01-26T17:28:40.854Z,90.74
2019-01-26T17:31:11.629Z,90.78
2019-01-26T17:33:42.349Z,90.84
2019-01-26T17:36:13.025Z,90.86
2019-01-26T17:38:45.064Z,90.88
2019-01-26T17:41:15.864Z,90.90
2019-01-26T17:43:50.149Z,90.96
2019-01-26T17:46:23.373Z,91.21
2019-01-26T17:48:54.394Z,91.46
2019-01-26T17:51:26.244Z,91.60
2019-01-26T17:53:57.814Z,91.69
2019-01-26T17:56:28.493Z,91.71
2019-01-26T17:58:59.319Z,91.70
2019-01-26T18:01:34.334Z,91.69
2019-01-26T18:04:10.124Z,91.65
2019-01-26T18:06:40.864Z,91.69
2019-01-26T18:09:11.818Z,91.89
2019-01-26T18:11:45.113Z,92.05
2019-01-26T18:14:16.365Z,92.16
2019-01-26T18:16:47.119Z,92.33
2019-01-26T18:19:20.275Z,92.51
2019-01-26T18:21:51.165Z,92.57
2019-01-26T18:24:46.302Z,92.60
2019-01-26T18:27:18.079Z,92.68
2019-01-26T18:29:51.365Z,92.67
2019-01-26T18:32:24.990Z,92.65
2019-01-26T18:34:59.895Z,92.61
2019-01-26T18:37:33.460Z,92.57
2019-01-26T18:40:06.930Z,92.49
2019-01-26T18:42:37.707Z,92.45
2019-01-26T18:45:11.808Z,92.39
2019-01-26T18:47:42.645Z,92.45
2019-01-26T18:50:24.603Z,92.47
2019-01-26T18:52:55.484Z,92.48
2019-01-26T18:55:29.246Z,92.47
2019-01-26T18:58:00.034Z,92.43
2019-01-26T19:00:39.988Z,92.42
2019-01-26T19:04:00.275Z,92.41
2019-01-26T19:06:31.507Z,92.55
2019-01-26T19:09:02.104Z,92.76
2019-01-26T19:11:36.863Z,92.95
2019-01-26T19:14:12.188Z,93.06
2019-01-26T19:16:45.309Z,93.21
2019-01-26T19:19:20.984Z,93.34
2019-01-26T19:21:54.604Z,93.45
2019-01-26T19:24:29.589Z,93.54
2019-01-26T19:27:00.870Z,93.67
2019-01-26T19:29:32.531Z,93.74
2019-01-26T19:32:05.428Z,93.83
2019-01-26T19:34:38.895Z,93.88
2019-01-26T19:37:15.738Z,93.95
2019-01-26T19:39:48.265Z,93.99
2019-01-26T19:42:27.925Z,94.03
2019-01-26T19:45:01.125Z,94.05
2019-01-26T19:47:34.044Z,94.06
2019-01-26T19:50:06.968Z,94.10
2019-01-26T19:52:40.105Z,94.09
2019-01-26T19:55:23.151Z,94.11
2019-01-26T19:58:00.414Z,94.16
2019-01-26T20:00:34.314Z,94.20
2019-01-26T20:03:06.138Z,94.25
2019-01-26T20:05:37.254Z,94.27
2019-01-26T20:08:10.204Z,94.30
2019-01-26T20:10:48.673Z,94.32
2019-01-26T20:13:20.860Z,94.35
2019-01-26T20:15:53.858Z,94.35
2019-01-26T20:18:34.265Z,94.38
2019-01-26T20:21:08.951Z,94.40
2019-01-26T20:23:49.735Z,94.42
2019-01-26T20:26:22.408Z,94.41
2019-01-26T20:28:56.898Z,94.43
2019-01-26T20:31:27.712Z,94.45
2019-01-26T20:33:59.639Z,94.47
2019-01-26T20:36:40.705Z,94.48
2019-01-26T20:39:11.633Z,94.50
2019-01-26T20:41:43.804Z,94.49
2019-01-26T20:44:17.789Z,94.50
2019-01-26T20:46:55.606Z,94.51
2019-01-26T20:49:27.580Z,94.50
2019-01-26T20:51:59.739Z,94.48
2019-01-26T20:54:30.628Z,94.47
2019-01-26T20:57:06.375Z,94.45
2019-01-26T20:59:41.155Z,94.44
2019-01-26T21:02:15.640Z,94.44
2019-01-26T21:04:51.348Z,94.42
2019-01-26T21:07:23.594Z,94.41
2019-01-26T21:09:54.900Z,94.41
2019-01-26T21:12:32.609Z,94.41
2019-01-26T21:15:08.756Z,94.42
2019-01-26T21:17:44.484Z,94.44
2019-01-26T21:20:21.754Z,94.45
2019-01-26T21:22:58.381Z,94.46
2019-01-26T21:25:32.980Z,94.47
2019-01-26T21:28:03.933Z,94.48
2019-01-26T21:30:34.574Z,94.49
2019-01-26T21:33:08.502Z,94.48
2019-01-26T21:35:41.569Z,94.45
2019-01-26T21:38:12.594Z,94.47
2019-01-26T21:40:48.743Z,94.48
2019-01-26T21:43:26.047Z,94.45
2019-01-26T21:45:57.995Z,94.42
2019-01-26T21:48:31.825Z,94.41
2019-01-26T21:51:05.020Z,94.37
2019-01-26T21:53:39.061Z,94.36
2019-01-26T21:56:09.905Z,94.35
2019-01-26T21:58:45.749Z,94.34
2019-01-26T22:01:20.089Z,94.32
2019-01-26T22:03:50.805Z,94.31
2019-01-26T22:06:21.510Z,94.29
2019-01-26T22:08:55.504Z,94.30
2019-01-26T22:11:26.033Z,94.30
2019-01-26T22:13:56.699Z,94.29
2019-01-26T22:16:28.754Z,94.29
2019-01-26T22:18:59.579Z,94.30
2019-01-26T22:21:30.404Z,94.32
2019-01-26T22:24:00.954Z,94.32
2019-01-26T22:26:31.841Z,94.32
2019-01-26T22:29:02.757Z,94.36
2019-01-26T22:31:33.618Z,94.37
2019-01-26T22:34:07.148Z,94.38
2019-01-26T22:36:40.771Z,94.38
2019-01-26T22:39:11.646Z,94.40
2019-01-26T22:41:42.326Z,94.42
2019-01-26T22:44:12.939Z,94.42
2019-01-26T22:46:43.810Z,94.45
2019-01-26T22:49:14.549Z,94.46
2019-01-26T22:51:44.974Z,94.48
2019-01-26T22:54:15.821Z,94.48
2019-01-26T22:56:46.449Z,94.51
2019-01-26T22:59:17.132Z,94.52
2019-01-26T23:01:48.611Z,94.53
2019-01-26T23:04:50.415Z,94.55
2019-01-26T23:07:44.692Z,94.53
2019-01-26T23:10:57.356Z,94.52
2019-01-26T23:13:52.529Z,94.52
2019-01-26T23:17:14.392Z,94.50
2019-01-26T23:20:12.381Z,94.49
2019-01-26T23:23:27.821Z,94.50
2019-01-26T23:26:47.392Z,94.48
2019-01-26T23:29:50.195Z,94.48
2019-01-26T23:32:20.969Z,94.47
2019-01-26T23:34:51.746Z,94.45
2019-01-26T23:37:22.549Z,94.48
2019-01-26T23:39:53.265Z,94.48
2019-01-26T23:42:24.224Z,94.47
2019-01-26T23:44:55.185Z,94.49
2019-01-26T23:47:25.910Z,94.50
2019-01-26T23:49:56.731Z,94.51
2019-01-26T23:52:27.622Z,94.52
2019-01-26T23:54:58.279Z,94.54
2019-01-26T23:57:29.684Z,94.53
